Time;durP1;ratioP1;P1;durP2;ratioP2;P2;SDS_P1;SDS_P2;PMS_P1;PMS_P2;Temp;Humidity;BMP_temperature;BMP_pressure;BME280_temperature;BME280_humidity;BME280_pressure;Samples;Min_cycle;Max_cycle;Signal;HPM_P1;HPM_P2
2022/03/14 00:01:36;;;;;;;3.75;3.08;;;21.90;29.90;;;;;;5147187;27;46849;-15
2022/03/14 00:04:03;;;;;;;3.47;3.17;;;21.90;29.90;;;;;;5147126;27;46907;-15
2022/03/14 00:06:30;;;;;;;5.05;3.05;;;21.90;29.90;;;;;;5146868;27;47068;-16
2022/03/14 00:08:57;;;;;;;3.42;3.10;;;21.90;29.80;;;;;;5146887;27;46902;-15
2022/03/14 00:11:25;;;;;;;3.20;2.90;;;22.00;29.90;;;;;;5135723;27;46927;-15
2022/03/14 00:13:54;;;;;;;2.92;2.72;;;21.90;29.90;;;;;;5126582;27;47103;-14
2022/03/14 00:16:23;;;;;;;3.15;2.83;;;21.90;29.90;;;;;;5125982;27;48216;-15
2022/03/14 00:18:51;;;;;;;3.30;3.00;;;21.90;29.90;;;;;;5126265;27;46819;-15
2022/03/14 00:21:18;;;;;;;2.60;2.40;;;21.90;30.00;;;;;;5126054;27;46959;-16
2022/03/14 00:23:45;;;;;;;2.72;2.53;;;21.90;29.90;;;;;;5126253;27;46972;-18
2022/03/14 00:26:12;;;;;;;3.05;2.70;;;21.90;30.00;;;;;;5126051;27;47784;-16
2022/03/14 00:28:39;;;;;;;2.80;2.55;;;21.90;29.90;;;;;;5126195;27;47225;-16
2022/03/14 00:31:05;;;;;;;2.67;2.47;;;21.90;29.90;;;;;;5125881;27;47000;-16
2022/03/14 00:33:35;;;;;;;2.80;2.60;;;21.90;29.90;;;;;;5126103;27;46895;-15
2022/03/14 00:36:02;;;;;;;2.70;2.50;;;21.80;30.00;;;;;;5125875;27;47886;-15
2022/03/14 00:38:28;;;;;;;2.83;2.58;;;21.80;30.00;;;;;;5126077;27;46840;-17
2022/03/14 00:40:55;;;;;;;2.63;2.42;;;21.80;30.00;;;;;;5125845;27;46750;-16
2022/03/14 00:43:22;;;;;;;2.83;2.50;;;21.80;30.00;;;;;;5125935;27;47283;-16
2022/03/14 00:45:48;;;;;;;2.33;2.20;;;21.80;30.00;;;;;;5125909;27;47816;-17
2022/03/14 00:48:15;;;;;;;3.03;2.45;;;21.90;30.00;;;;;;5125640;27;46896;-17
2022/03/14 00:50:43;;;;;;;2.10;1.90;;;21.80;30.00;;;;;;5125658;27;46855;-15
2022/03/14 00:53:10;;;;;;;2.53;2.33;;;21.80;30.00;;;;;;5126658;27;47300;-16
2022/03/14 00:55:37;;;;;;;2.70;2.50;;;21.80;30.00;;;;;;5129195;27;48004;-15
2022/03/14 00:58:04;;;;;;;2.25;2.05;;;21.80;30.00;;;;;;5129271;27;46742;-17
2022/03/14 01:00:30;;;;;;;1.98;1.88;;;21.80;30.00;;;;;;5129077;27;46854;-17
2022/03/14 01:02:59;;;;;;;2.28;2.10;;;21.80;30.00;;;;;;5129497;27;47269;-16
2022/03/14 01:05:25;;;;;;;2.38;2.10;;;21.80;30.00;;;;;;5128931;27;47827;-16
2022/03/14 01:07:53;;;;;;;2.20;2.00;;;21.80;30.00;;;;;;5129198;27;46864;-15
2022/03/14 01:10:20;;;;;;;1.90;1.80;;;21.80;30.00;;;;;;5130958;27;46892;-15
2022/03/14 01:12:47;;;;;;;1.90;1.80;;;21.80;30.00;;;;;;5150285;27;46974;-17
2022/03/14 01:15:14;;;;;;;1.90;1.80;;;21.80;30.00;;;;;;5149801;27;46905;-16
2022/03/14 01:17:41;;;;;;;2.00;1.90;;;21.80;30.00;;;;;;5149652;27;46849;-17
2022/03/14 01:20:08;;;;;;;2.92;1.90;;;21.80;30.00;;;;;;5149790;27;46934;-16
2022/03/14 01:22:35;;;;;;;2.00;1.90;;;21.80;30.00;;;;;;5149944;27;46824;-16
2022/03/14 01:25:03;;;;;;;2.20;2.00;;;21.80;29.90;;;;;;5149141;27;47959;-16
2022/03/14 01:27:30;;;;;;;2.17;1.98;;;21.80;30.00;;;;;;5149682;27;46883;-17
2022/03/14 01:29:56;;;;;;;1.90;1.80;;;21.80;30.00;;;;;;5149170;27;46988;-16
2022/03/14 01:32:23;;;;;;;1.80;1.70;;;21.80;30.00;;;;;;5149566;27;46890;-17
2022/03/14 01:34:50;;;;;;;2.25;2.08;;;21.70;30.00;;;;;;5149111;27;48195;-16
2022/03/14 01:37:19;;;;;;;1.52;1.42;;;21.80;30.00;;;;;;5149594;27;46999;-16
2022/03/14 01:39:46;;;;;;;1.70;1.60;;;21.80;29.90;;;;;;5148941;27;47133;-15
2022/03/14 01:42:17;;;;;;;1.80;1.70;;;21.80;29.90;;;;;;5149317;27;47358;-16
2022/03/14 01:44:45;;;;;;;1.50;1.40;;;21.80;29.90;;;;;;5149456;27;48103;-15
2022/03/14 01:47:12;;;;;;;1.80;1.70;;;21.70;29.80;;;;;;5149241;27;46795;-16
2022/03/14 01:49:38;;;;;;;1.70;1.60;;;21.70;29.90;;;;;;5149409;27;46947;-16
2022/03/14 01:52:07;;;;;;;1.70;1.60;;;21.70;30.40;;;;;;5149903;27;47129;-16
2022/03/14 01:54:34;;;;;;;1.60;1.50;;;21.70;29.90;;;;;;5149209;27;47108;-16
2022/03/14 01:57:00;;;;;;;1.80;1.70;;;21.80;30.30;;;;;;5149434;27;47277;-16
2022/03/14 01:59:29;;;;;;;1.70;1.60;;;21.80;29.90;;;;;;5149043;27;46968;-15
2022/03/14 02:01:56;;;;;;;1.40;1.30;;;21.80;29.90;;;;;;5149123;27;46898;-16
2022/03/14 02:04:22;;;;;;;1.65;1.55;;;21.80;29.90;;;;;;5148095;27;48206;-16
2022/03/14 02:06:50;;;;;;;1.60;1.50;;;21.70;29.90;;;;;;5148326;27;46821;-16
2022/03/14 02:09:17;;;;;;;1.70;1.60;;;21.70;30.00;;;;;;5148738;27;46852;-16
2022/03/14 02:11:52;;;;;;;1.33;1.23;;;21.70;29.90;;;;;;5134684;27;46892;-16
2022/03/14 02:14:19;;;;;;;1.20;1.20;;;21.70;29.90;;;;;;5127813;27;47649;-16
2022/03/14 02:16:47;;;;;;;1.30;1.20;;;21.70;29.80;;;;;;5127984;27;46939;-17
2022/03/14 02:19:14;;;;;;;1.10;1.10;;;21.70;29.80;;;;;;5127737;27;46906;-16
2022/03/14 02:21:42;;;;;;;1.42;1.20;;;21.70;29.90;;;;;;5128122;27;46861;-16
2022/03/14 02:24:09;;;;;;;1.08;1.08;;;21.70;30.00;;;;;;5127498;27;47931;-17
2022/03/14 02:26:39;;;;;;;1.38;1.10;;;21.70;30.00;;;;;;5127636;27;47067;-16
2022/03/14 02:29:06;;;;;;;1.23;1.17;;;21.70;30.00;;;;;;5128013;27;47104;-16
2022/03/14 02:31:34;;;;;;;1.38;1.20;;;21.70;29.90;;;;;;5128084;27;46903;-17
2022/03/14 02:34:00;;;;;;;1.35;1.25;;;21.70;29.90;;;;;;5127459;27;47074;-16
2022/03/14 02:36:27;;;;;;;1.00;1.00;;;21.70;29.90;;;;;;5127776;27;46921;-16
2022/03/14 02:38:55;;;;;;;1.00;1.00;;;21.60;29.90;;;;;;5127517;27;46941;-15
2022/03/14 02:41:23;;;;;;;0.95;0.95;;;21.60;30.00;;;;;;5127560;27;47224;-16
2022/03/14 02:43:49;;;;;;;0.93;0.93;;;21.60;30.00;;;;;;5127298;27;48100;-16
2022/03/14 02:46:16;;;;;;;0.90;0.90;;;21.60;29.90;;;;;;5127646;27;47261;-16
2022/03/14 02:48:43;;;;;;;0.93;0.93;;;21.60;29.90;;;;;;5127643;27;46939;-15
2022/03/14 02:51:10;;;;;;;1.15;1.15;;;21.60;29.90;;;;;;5127831;27;46914;-16
2022/03/14 02:53:37;;;;;;;1.02;1.00;;;21.60;29.90;;;;;;5127209;27;46894;-16
2022/03/14 02:56:05;;;;;;;1.10;1.00;;;21.60;30.00;;;;;;5127087;27;46922;-15
2022/03/14 02:58:32;;;;;;;0.80;0.80;;;21.60;30.00;;;;;;5127538;27;46838;-16
2022/03/14 03:00:59;;;;;;;1.05;1.05;;;21.60;30.00;;;;;;5127377;27;47352;-16
2022/03/14 03:03:27;;;;;;;0.73;0.73;;;21.60;30.00;;;;;;5127024;27;48142;-16
2022/03/14 03:05:54;;;;;;;0.82;0.82;;;21.60;30.00;;;;;;5127100;27;46873;-16
2022/03/14 03:08:22;;;;;;;0.88;0.88;;;21.60;30.00;;;;;;5127254;27;46873;-16
2022/03/14 03:10:49;;;;;;;1.00;1.00;;;21.50;29.90;;;;;;5133611;27;47008;-15
2022/03/14 03:13:18;;;;;;;1.00;1.00;;;21.50;29.90;;;;;;5147930;27;47856;-17
2022/03/14 03:15:44;;;;;;;0.85;0.85;;;21.50;30.00;;;;;;5147446;27;46911;-16
2022/03/14 03:18:11;;;;;;;0.80;0.80;;;21.50;30.00;;;;;;5147688;27;46845;-16
2022/03/14 03:20:38;;;;;;;0.80;0.80;;;21.50;30.00;;;;;;5147995;27;47300;-16
2022/03/14 03:23:05;;;;;;;0.77;0.77;;;21.50;30.00;;;;;;5147758;27;47061;-15
2022/03/14 03:25:32;;;;;;;0.80;0.80;;;21.50;29.90;;;;;;5147620;27;46846;-15
2022/03/14 03:27:58;;;;;;;0.60;0.60;;;21.50;29.90;;;;;;5147621;27;46769;-15
2022/03/14 03:30:26;;;;;;;0.75;0.75;;;21.50;30.00;;;;;;5147797;27;46879;-16
2022/03/14 03:32:53;;;;;;;0.75;0.75;;;21.50;30.00;;;;;;5147707;27;49078;-16
2022/03/14 03:35:20;;;;;;;0.70;0.70;;;21.50;30.00;;;;;;5147288;27;46861;-16
2022/03/14 03:37:47;;;;;;;0.50;0.50;;;21.50;30.00;;;;;;5147818;27;46774;-17
2022/03/14 03:40:13;;;;;;;0.60;0.60;;;21.50;30.00;;;;;;5147371;27;46886;-16
2022/03/14 03:42:40;;;;;;;0.70;0.70;;;21.50;30.00;;;;;;5147350;27;46808;-16
2022/03/14 03:45:08;;;;;;;0.70;0.70;;;21.40;30.00;;;;;;5146981;27;46979;-16
2022/03/14 03:47:36;;;;;;;0.70;0.70;;;21.40;30.00;;;;;;5147564;27;46907;-16
2022/03/14 03:50:03;;;;;;;0.60;0.60;;;21.50;30.00;;;;;;5147711;27;47220;-16
2022/03/14 03:52:30;;;;;;;0.75;0.75;;;21.40;30.00;;;;;;5147165;27;47935;-16
2022/03/14 03:54:57;;;;;;;0.70;0.70;;;21.40;29.90;;;;;;5147171;27;46966;-16
2022/03/14 03:57:23;;;;;;;0.82;0.82;;;21.40;30.00;;;;;;5147486;27;46890;-16
2022/03/14 03:59:50;;;;;;;0.60;0.60;;;21.40;30.00;;;;;;5147306;27;47283;-15
2022/03/14 04:02:19;;;;;;;0.60;0.60;;;21.40;30.00;;;;;;5147223;27;47847;-16
2022/03/14 04:04:47;;;;;;;0.55;0.55;;;21.40;30.00;;;;;;5146865;27;47015;-16
2022/03/14 04:07:18;;;;;;;0.70;0.70;;;21.40;30.00;;;;;;5147081;27;46844;-16
2022/03/14 04:09:45;;;;;;;0.57;0.57;;;21.40;30.00;;;;;;5147089;27;47039;-15
2022/03/14 04:12:12;;;;;;;0.50;0.50;;;21.40;30.00;;;;;;5128494;27;48089;-16
2022/03/14 04:14:38;;;;;;;0.60;0.60;;;21.40;30.00;;;;;;5126042;27;46934;-15
2022/03/14 04:17:07;;;;;;;0.60;0.60;;;21.30;30.00;;;;;;5126159;27;46849;-16
2022/03/14 04:19:34;;;;;;;0.70;0.70;;;21.30;30.00;;;;;;5126136;27;47114;-16
2022/03/14 04:22:03;;;;;;;0.45;0.45;;;21.30;30.00;;;;;;5125936;27;47887;-16
2022/03/14 04:24:30;;;;;;;0.60;0.60;;;21.30;30.00;;;;;;5125794;27;46915;-16
2022/03/14 04:26:57;;;;;;;0.68;0.68;;;21.30;30.00;;;;;;5126384;27;46743;-16
2022/03/14 04:29:24;;;;;;;0.80;0.80;;;21.30;30.00;;;;;;5128426;27;47167;-16
2022/03/14 04:31:50;;;;;;;1.38;0.70;;;21.30;30.00;;;;;;5129536;27;47203;-17
2022/03/14 04:34:17;;;;;;;0.68;0.68;;;21.30;30.50;;;;;;5129604;27;47068;-16
2022/03/14 04:36:44;;;;;;;0.60;0.57;;;21.30;30.00;;;;;;5129804;27;46879;-16
2022/03/14 04:39:12;;;;;;;1.45;0.60;;;21.30;29.90;;;;;;5129425;27;46942;-16
2022/03/14 04:41:39;;;;;;;0.75;0.60;;;21.30;30.00;;;;;;5129277;27;47909;-16
2022/03/14 04:44:06;;;;;;;0.60;0.60;;;21.30;30.00;;;;;;5129561;27;47162;-16
2022/03/14 04:46:34;;;;;;;0.75;0.60;;;21.30;30.00;;;;;;5129901;27;46887;-16
2022/03/14 04:49:01;;;;;;;0.57;0.57;;;21.30;30.00;;;;;;5129675;27;46899;-16
2022/03/14 04:51:27;;;;;;;0.55;0.55;;;21.30;29.90;;;;;;5129400;27;48188;-16
2022/03/14 04:53:54;;;;;;;0.60;0.60;;;21.30;29.90;;;;;;5129377;27;47566;-16
2022/03/14 04:56:23;;;;;;;0.60;0.60;;;21.30;29.90;;;;;;5129195;27;46796;-16
2022/03/14 04:58:49;;;;;;;0.52;0.52;;;21.30;29.90;;;;;;5129198;27;47206;-17
2022/03/14 05:01:23;;;;;;;0.40;0.40;;;21.20;29.90;;;;;;5128913;27;47802;-16
2022/03/14 05:03:50;;;;;;;0.73;0.70;;;21.20;30.00;;;;;;5128980;27;47418;-17
2022/03/14 05:06:17;;;;;;;0.60;0.60;;;21.20;30.00;;;;;;5129261;27;46942;-16
2022/03/14 05:08:44;;;;;;;0.50;0.50;;;21.20;29.90;;;;;;5129216;27;47299;-16
2022/03/14 05:11:11;;;;;;;0.50;0.50;;;21.20;29.90;;;;;;5138393;27;48178;-16
2022/03/14 05:13:40;;;;;;;0.50;0.47;;;21.20;29.90;;;;;;5149916;27;46912;-17
2022/03/14 05:16:06;;;;;;;0.35;0.35;;;21.20;29.90;;;;;;5149475;27;46896;-16
2022/03/14 05:18:34;;;;;;;0.60;0.47;;;21.20;30.00;;;;;;5149782;27;46882;-17
2022/03/14 05:21:01;;;;;;;0.63;0.63;;;21.20;30.00;;;;;;5149655;27;48106;-16
2022/03/14 05:23:28;;;;;;;0.70;0.70;;;21.20;29.90;;;;;;5149767;27;46991;-17
2022/03/14 05:25:55;;;;;;;0.40;0.40;;;21.20;29.90;;;;;;5149665;27;46904;-15
2022/03/14 05:28:21;;;;;;;0.40;0.40;;;21.20;29.90;;;;;;5149645;27;47256;-17
2022/03/14 05:30:49;;;;;;;1.55;0.70;;;21.20;29.90;;;;;;5149214;27;49119;-17
2022/03/14 05:33:16;;;;;;;0.60;0.60;;;21.10;29.90;;;;;;5149492;27;47071;-15
2022/03/14 05:35:43;;;;;;;0.65;0.50;;;21.10;30.00;;;;;;5149674;27;47245;-16
2022/03/14 05:38:10;;;;;;;1.75;0.50;;;21.10;29.90;;;;;;5149475;27;47362;-16
2022/03/14 05:40:36;;;;;;;0.40;0.40;;;21.10;29.90;;;;;;5147925;27;47080;-16
2022/03/14 05:43:06;;;;;;;0.90;0.70;;;21.10;30.40;;;;;;5149363;27;47015;-16
2022/03/14 05:45:33;;;;;;;0.50;0.50;;;21.10;29.90;;;;;;5149339;27;46958;-16
2022/03/14 05:48:01;;;;;;;1.15;0.50;;;21.10;29.90;;;;;;5149404;27;46861;-16
2022/03/14 05:50:27;;;;;;;0.50;0.50;;;21.10;30.00;;;;;;5149047;27;48887;-16
2022/03/14 05:52:54;;;;;;;0.80;0.80;;;21.10;30.00;;;;;;5149249;27;46825;-17
2022/03/14 05:55:21;;;;;;;0.43;0.43;;;21.10;30.00;;;;;;5149085;27;46741;-16
2022/03/14 05:57:48;;;;;;;0.60;0.60;;;21.10;30.00;;;;;;5149457;27;46917;-17
2022/03/14 06:00:23;;;;;;;0.75;0.50;;;21.10;29.90;;;;;;5148961;27;48955;-16
2022/03/14 06:02:51;;;;;;;0.65;0.65;;;21.10;30.00;;;;;;5149097;27;46982;-16
2022/03/14 06:05:20;;;;;;;0.60;0.60;;;21.10;30.00;;;;;;5148872;27;46886;-15
2022/03/14 06:07:47;;;;;;;0.57;0.45;;;21.00;30.00;;;;;;5149311;27;46870;-16
2022/03/14 06:10:14;;;;;;;1.20;0.70;;;21.10;30.00;;;;;;5147410;27;47388;-17
2022/03/14 06:12:42;;;;;;;1.50;0.77;;;21.00;29.90;;;;;;5128163;27;46854;-16
2022/03/14 06:15:12;;;;;;;0.90;0.68;;;21.10;30.00;;;;;;5127762;27;46893;-17
2022/03/14 06:17:40;;;;;;;1.65;0.55;;;21.00;30.00;;;;;;5128458;27;46910;-15
2022/03/14 06:20:08;;;;;;;0.60;0.60;;;21.00;30.00;;;;;;5127942;27;47846;-15
2022/03/14 06:22:39;;;;;;;0.60;0.60;;;21.00;30.00;;;;;;5127602;27;46845;-16
2022/03/14 06:25:07;;;;;;;0.73;0.60;;;21.00;30.00;;;;;;5127963;27;46851;-15
2022/03/14 06:27:33;;;;;;;0.93;0.65;;;21.00;30.00;;;;;;5127954;27;47148;-16
2022/03/14 06:30:00;;;;;;;0.60;0.60;;;21.00;30.00;;;;;;5127440;27;46882;-15
2022/03/14 06:32:30;;;;;;;0.80;0.77;;;21.00;29.90;;;;;;5127784;27;47142;-16
2022/03/14 06:34:57;;;;;;;0.60;0.60;;;21.00;30.00;;;;;;5127146;27;46838;-15
2022/03/14 06:37:24;;;;;;;1.08;0.50;;;21.00;30.00;;;;;;5127917;27;47094;-16
2022/03/14 06:39:52;;;;;;;0.60;0.60;;;21.00;30.00;;;;;;5127444;27;47911;-15
2022/03/14 06:42:20;;;;;;;0.50;0.50;;;21.00;29.90;;;;;;5127380;27;46869;-16
2022/03/14 06:44:50;;;;;;;0.60;0.60;;;21.00;29.90;;;;;;5127404;27;46909;-15
2022/03/14 06:47:17;;;;;;;1.20;0.68;;;21.00;29.90;;;;;;5127719;27;47260;-16
2022/03/14 06:49:44;;;;;;;0.90;0.70;;;21.00;29.90;;;;;;5127033;27;48731;-16
2022/03/14 06:52:11;;;;;;;0.88;0.70;;;21.00;29.90;;;;;;5127082;27;47138;-16
2022/03/14 06:54:38;;;;;;;1.70;0.70;;;20.90;29.90;;;;;;5127380;27;46903;-16
2022/03/14 06:57:07;;;;;;;1.10;0.57;;;20.90;29.90;;;;;;5127312;27;46936;-15
2022/03/14 06:59:33;;;;;;;0.63;0.50;;;21.00;29.90;;;;;;5135243;27;47081;-16
2022/03/14 07:02:00;;;;;;;1.52;0.60;;;21.00;29.90;;;;;;5147534;27;46832;-17
2022/03/14 07:04:27;;;;;;;1.17;0.85;;;21.00;29.90;;;;;;5147531;27;46971;-16
2022/03/14 07:06:54;;;;;;;0.90;0.50;;;20.90;29.90;;;;;;5148264;27;46931;-17
2022/03/14 07:09:20;;;;;;;1.10;0.60;;;20.90;30.00;;;;;;5147850;27;48880;-16
2022/03/14 07:11:51;;;;;;;0.55;0.50;;;20.90;30.00;;;;;;5147647;27;46813;-16
2022/03/14 07:14:20;;;;;;;1.50;0.55;;;20.90;30.00;;;;;;5147668;27;46941;-16
2022/03/14 07:16:47;;;;;;;1.05;0.70;;;20.90;29.90;;;;;;5147686;27;46938;-17
2022/03/14 07:19:14;;;;;;;1.02;0.70;;;21.00;29.80;;;;;;5147797;27;47113;-16
2022/03/14 07:21:41;;;;;;;0.57;0.57;;;21.00;29.90;;;;;;5147638;27;47351;-16
2022/03/14 07:24:08;;;;;;;2.20;0.70;;;21.00;29.90;;;;;;5147878;27;46825;-16
2022/03/14 07:26:34;;;;;;;0.65;0.65;;;20.90;30.30;;;;;;5148095;27;47311;-16
2022/03/14 07:29:01;;;;;;;0.70;0.70;;;20.90;29.90;;;;;;5147375;27;47077;-15
2022/03/14 07:31:29;;;;;;;0.93;0.80;;;20.90;29.90;;;;;;5147496;27;46837;-16
2022/03/14 07:33:56;;;;;;;1.25;0.73;;;21.00;29.90;;;;;;5147744;27;46860;-16
2022/03/14 07:36:23;;;;;;;1.98;0.90;;;20.90;29.80;;;;;;5147850;27;47098;-16
2022/03/14 07:38:50;;;;;;;1.48;0.85;;;21.00;29.80;;;;;;5147466;27;47938;-16
2022/03/14 07:41:17;;;;;;;2.00;0.80;;;21.00;29.90;;;;;;5147480;27;47402;-16
2022/03/14 07:43:43;;;;;;;1.42;0.90;;;21.00;29.90;;;;;;5147471;27;46911;-17
2022/03/14 07:46:10;;;;;;;1.00;0.90;;;20.90;29.90;;;;;;5147430;27;46932;-17
2022/03/14 07:48:38;;;;;;;0.90;0.90;;;20.90;29.90;;;;;;5147371;27;48765;-16
2022/03/14 07:51:06;;;;;;;2.03;1.00;;;21.00;29.80;;;;;;5147313;27;46973;-15
2022/03/14 07:53:33;;;;;;;1.20;1.00;;;21.00;29.80;;;;;;5147565;27;46901;-16
2022/03/14 07:55:59;;;;;;;1.85;1.02;;;21.00;29.80;;;;;;5147641;27;46870;-15
2022/03/14 07:58:26;;;;;;;1.05;0.95;;;21.00;29.80;;;;;;5147239;27;49034;-16
2022/03/14 08:00:54;;;;;;;1.38;0.95;;;21.00;29.70;;;;;;5147227;27;46990;-16
2022/03/14 08:03:22;;;;;;;1.63;1.30;;;21.00;29.80;;;;;;5147909;27;46975;-16
2022/03/14 08:05:58;;;;;;;1.45;1.15;;;20.90;29.80;;;;;;5150798;27;47075;-16
2022/03/14 08:08:25;;;;;;;1.50;1.23;;;21.00;29.90;;;;;;5151192;27;47239;-15
2022/03/14 08:10:53;;;;;;;1.10;1.00;;;21.00;29.80;;;;;;5143504;27;46825;-15
2022/03/14 08:13:20;;;;;;;1.85;1.42;;;21.00;29.80;;;;;;5130150;27;46945;-16
2022/03/14 08:15:47;;;;;;;2.00;1.40;;;21.00;29.80;;;;;;5129797;27;46907;-15
2022/03/14 08:18:14;;;;;;;1.63;1.27;;;21.00;29.80;;;;;;5129868;27;48471;-16
2022/03/14 08:20:41;;;;;;;1.38;1.27;;;21.00;29.80;;;;;;5129899;27;47006;-15
2022/03/14 08:23:09;;;;;;;1.85;1.40;;;21.00;29.80;;;;;;5129862;27;46921;-16
2022/03/14 08:25:36;;;;;;;2.33;1.40;;;21.00;29.80;;;;;;5130106;27;46822;-16
2022/03/14 08:28:02;;;;;;;2.38;1.45;;;20.90;29.80;;;;;;5129856;27;49071;-16
2022/03/14 08:30:30;;;;;;;2.10;1.48;;;21.00;29.90;;;;;;5129590;27;47154;-16
2022/03/14 08:32:57;;;;;;;2.55;1.42;;;21.00;29.80;;;;;;5129536;27;46938;-16
2022/03/14 08:35:24;;;;;;;2.33;1.42;;;21.00;29.80;;;;;;5130049;27;47308;-15
2022/03/14 08:37:52;;;;;;;2.17;1.50;;;21.00;29.80;;;;;;5129394;27;47980;-16
2022/03/14 08:40:21;;;;;;;2.20;1.75;;;21.00;29.80;;;;;;5129320;27;47386;-15
2022/03/14 08:42:48;;;;;;;3.90;1.70;;;21.00;29.80;;;;;;5152936;27;47114;-15
2022/03/14 08:45:15;;;;;;;2.83;1.45;;;21.00;29.80;;;;;;5169646;27;47195;-15
2022/03/14 08:47:41;;;;;;;1.98;1.63;;;21.00;29.90;;;;;;5155908;27;49102;-15
2022/03/14 08:50:09;;;;;;;4.22;1.80;;;21.00;29.90;;;;;;5150072;27;47026;-16
2022/03/14 08:52:36;;;;;;;3.03;1.85;;;20.90;29.90;;;;;;5150077;27;46934;-16
2022/03/14 08:55:03;;;;;;;3.42;1.77;;;21.00;29.90;;;;;;5148976;27;46924;-17
2022/03/14 08:57:31;;;;;;;3.35;1.60;;;21.00;29.80;;;;;;5148975;27;47936;-16
2022/03/14 08:59:58;;;;;;;2.20;1.80;;;21.00;29.80;;;;;;5149009;27;47097;-15
2022/03/14 09:02:26;;;;;;;4.13;1.98;;;21.00;29.80;;;;;;5148810;27;46813;-16
2022/03/14 09:04:53;;;;;;;3.38;1.70;;;21.00;29.70;;;;;;5149473;27;47303;-15
2022/03/14 09:07:25;;;;;;;2.05;1.60;;;21.00;29.90;;;;;;5149621;27;48198;-16
2022/03/14 09:09:51;;;;;;;2.55;1.90;;;21.00;29.90;;;;;;5149410;27;47667;-16
2022/03/14 09:12:19;;;;;;;3.05;1.65;;;21.00;29.90;;;;;;5148712;27;47232;-16
2022/03/14 09:14:50;;;;;;;4.57;2.25;;;21.00;29.90;;;;;;5148398;27;46906;-16
2022/03/14 09:17:17;;;;;;;2.47;1.98;;;21.00;29.60;;;;;;5149392;27;48160;-16
2022/03/14 09:19:43;;;;;;;3.38;2.10;;;21.10;29.90;;;;;;5149919;27;47284;-17
2022/03/14 09:22:10;;;;;;;2.88;1.88;;;21.10;29.90;;;;;;5149172;27;47000;-16
2022/03/14 09:24:37;;;;;;;2.60;1.95;;;21.10;29.80;;;;;;5149112;27;47252;-16
2022/03/14 09:27:04;;;;;;;6.30;2.22;;;21.10;29.80;;;;;;5149174;27;49211;-16
2022/03/14 09:29:31;;;;;;;2.63;2.25;;;21.10;29.80;;;;;;5149406;27;47071;-15
2022/03/14 09:31:59;;;;;;;4.30;2.40;;;21.10;29.80;;;;;;5149392;27;46864;-15
2022/03/14 09:34:26;;;;;;;4.78;2.38;;;21.10;29.90;;;;;;5149583;27;47031;-16
2022/03/14 09:36:55;;;;;;;4.20;2.30;;;21.10;29.90;;;;;;5149278;27;48050;-16
2022/03/14 09:39:21;;;;;;;3.67;2.58;;;21.10;29.90;;;;;;5149117;27;47429;-16
2022/03/14 09:41:49;;;;;;;3.85;2.47;;;21.10;29.90;;;;;;5149589;27;46886;-16
2022/03/14 09:44:16;;;;;;;3.65;2.30;;;21.20;29.90;;;;;;5149361;27;46990;-15
2022/03/14 09:46:43;;;;;;;3.28;2.38;;;21.20;29.80;;;;;;5149415;27;46811;-16
2022/03/14 09:49:11;;;;;;;3.83;2.40;;;21.20;29.80;;;;;;5148944;27;47083;-17
2022/03/14 09:51:39;;;;;;;2.88;2.10;;;21.20;29.80;;;;;;5149155;27;46978;-16
2022/03/14 09:54:06;;;;;;;2.55;2.25;;;21.20;29.80;;;;;;5149398;27;46951;-16
2022/03/14 09:56:33;;;;;;;4.47;2.40;;;21.30;29.90;;;;;;5149169;27;48381;-16
2022/03/14 09:59:00;;;;;;;4.22;2.33;;;21.30;29.90;;;;;;5148847;27;46761;-16
2022/03/14 10:01:27;;;;;;;3.05;1.85;;;21.30;29.90;;;;;;5149278;27;46848;-16
2022/03/14 10:03:53;;;;;;;2.30;1.95;;;21.30;29.90;;;;;;5148468;27;46894;-16
2022/03/14 10:06:22;;;;;;;3.20;2.28;;;21.30;29.80;;;;;;5147982;27;48233;-16
2022/03/14 10:08:49;;;;;;;3.08;2.35;;;21.30;29.90;;;;;;5127750;27;46834;-16
2022/03/14 10:11:16;;;;;;;2.85;1.95;;;21.40;29.80;;;;;;5137717;27;46867;-16
2022/03/14 10:13:43;;;;;;;2.97;2.15;;;21.40;29.70;;;;;;5148047;27;47045;-15
2022/03/14 10:16:09;;;;;;;3.45;2.20;;;21.40;29.70;;;;;;5148738;27;48215;-17
2022/03/14 10:18:37;;;;;;;2.70;2.25;;;21.50;29.80;;;;;;5149003;27;47215;-17
2022/03/14 10:21:05;;;;;;;2.53;1.83;;;21.50;29.70;;;;;;5148032;27;47266;-16
2022/03/14 10:23:36;;;;;;;3.13;1.80;;;21.50;29.70;;;;;;5148374;27;46998;-16
2022/03/14 10:26:03;;;;;;;2.40;2.10;;;21.50;29.70;;;;;;5149875;27;48749;-15
2022/03/14 10:28:30;;;;;;;2.38;1.70;;;21.50;29.80;;;;;;5147851;27;46868;-15
2022/03/14 10:31:00;;;;;;;2.97;1.73;;;21.50;29.80;;;;;;5145240;27;47079;-15
2022/03/14 10:33:30;;;;;;;2.35;1.77;;;21.50;29.80;;;;;;5147417;27;46906;-21
2022/03/14 10:35:57;;;;;;;3.22;2.03;;;21.50;29.80;;;;;;5146509;27;49054;-22
2022/03/14 10:38:24;;;;;;;2.58;1.70;;;21.60;29.80;;;;;;5147839;27;46879;-22
2022/03/14 10:40:52;;;;;;;3.05;1.80;;;21.60;29.80;;;;;;5148199;27;46887;-22
2022/03/14 10:43:23;;;;;;;4.07;2.10;;;21.70;29.80;;;;;;5148575;27;46925;-22
2022/03/14 10:45:50;;;;;;;3.67;1.90;;;21.70;29.70;;;;;;5148232;27;47871;-22
2022/03/14 10:48:17;;;;;;;2.25;1.90;;;21.70;29.60;;;;;;5147669;27;47546;-21
2022/03/14 10:50:44;;;;;;;2.15;1.95;;;21.80;29.60;;;;;;5146841;27;47017;-22
2022/03/14 10:53:11;;;;;;;2.10;1.90;;;21.80;29.60;;;;;;5147291;27;47057;-22
2022/03/14 10:55:39;;;;;;;2.88;2.13;;;21.90;29.60;;;;;;5147827;27;47950;-22
2022/03/14 10:58:14;;;;;;;2.00;1.80;;;21.90;29.60;;;;;;5147664;27;47021;-22
2022/03/14 11:00:47;;;;;;;1.50;1.38;;;21.90;29.60;;;;;;5147916;27;46865;-21
2022/03/14 11:03:24;;;;;;;3.03;1.75;;;22.00;29.60;;;;;;5147848;27;47219;-21
2022/03/14 11:05:51;;;;;;;2.03;1.60;;;22.00;29.60;;;;;;5147755;27;47964;-21
2022/03/14 11:08:35;;;;;;;2.92;1.95;;;22.10;29.50;;;;;;5147649;27;46784;-22
2022/03/14 11:11:02;;;;;;;2.65;1.83;;;22.20;29.50;;;;;;5138298;27;46893;-22
2022/03/14 11:13:30;;;;;;;2.03;1.67;;;22.20;29.30;;;;;;5146489;27;47264;-22
2022/03/14 11:15:57;;;;;;;2.22;1.80;;;22.30;29.30;;;;;;5146673;27;48113;-21
2022/03/14 11:18:24;;;;;;;2.20;1.75;;;22.30;29.20;;;;;;5147528;27;47281;-22
2022/03/14 11:20:52;;;;;;;1.90;1.50;;;22.40;29.20;;;;;;5147251;27;46931;-22
2022/03/14 11:23:19;;;;;;;1.83;1.70;;;22.40;29.10;;;;;;5148017;27;46895;-22
2022/03/14 11:25:46;;;;;;;2.33;1.60;;;22.50;29.10;;;;;;5146587;27;47075;-22
2022/03/14 11:28:16;;;;;;;2.53;1.60;;;22.60;29.10;;;;;;5147073;27;47143;-22
2022/03/14 11:30:49;;;;;;;1.70;1.60;;;22.60;29.00;;;;;;5126253;27;46999;-21
2022/03/14 11:33:16;;;;;;;2.45;1.50;;;22.70;29.00;;;;;;5126590;27;46987;-22
2022/03/14 11:35:43;;;;;;;2.22;1.55;;;22.70;29.00;;;;;;5126855;27;48104;-21
2022/03/14 11:38:10;;;;;;;2.25;1.20;;;22.70;28.90;;;;;;5126553;27;47280;-21
2022/03/14 11:40:37;;;;;;;1.80;1.45;;;22.80;29.00;;;;;;5126576;27;46897;-22
2022/03/14 11:43:04;;;;;;;1.83;1.50;;;22.80;28.90;;;;;;5126723;27;46902;-21
2022/03/14 11:45:30;;;;;;;1.48;1.30;;;22.90;28.90;;;;;;5137262;27;48168;-21
2022/03/14 11:47:58;;;;;;;2.78;1.27;;;22.90;28.80;;;;;;5147459;27;47432;-21
2022/03/14 11:50:25;;;;;;;1.27;1.10;;;23.00;28.80;;;;;;5147348;27;46984;-22
2022/03/14 11:52:52;;;;;;;2.47;1.60;;;23.10;28.70;;;;;;5147392;27;47259;-22
2022/03/14 11:55:21;;;;;;;1.52;1.42;;;23.20;29.20;;;;;;5146886;27;47870;-22
2022/03/14 11:57:48;;;;;;;1.77;1.63;;;23.20;28.60;;;;;;5142811;27;47230;-22
2022/03/14 12:00:35;;;;;;;2.72;1.60;;;23.30;28.60;;;;;;5125147;27;46936;-22
2022/03/14 12:03:05;;;;;;;1.77;1.40;;;23.30;28.60;;;;;;5125177;27;46954;-22
2022/03/14 12:05:50;;;;;;;2.75;1.42;;;23.30;28.50;;;;;;5124720;27;48115;-21
2022/03/14 12:08:52;;;;;;;2.35;1.02;;;23.40;28.30;;;;;;5126120;27;47108;-21
2022/03/14 12:11:31;;;;;;;3.80;1.15;;;23.40;27.60;;;;;;5060604;28;47066;-21
2022/03/14 12:13:58;;;;;;;3.72;1.10;;;23.40;27.10;;;;;;5062056;28;47035;-21
2022/03/14 12:16:37;;;;;;;1.88;1.08;;;23.40;26.80;;;;;;5096443;27;49054;-22
2022/03/14 12:19:33;;;;;;;1.75;1.10;;;23.40;27.30;;;;;;5139440;27;47356;-22
2022/03/14 12:22:02;;;;;;;2.50;1.25;;;23.40;27.50;;;;;;5145063;27;47033;-23
2022/03/14 12:24:53;;;;;;;1.80;1.27;;;23.50;27.80;;;;;;5143461;27;47060;-21
2022/03/14 12:27:21;;;;;;;1.55;1.10;;;23.50;27.90;;;;;;5125153;27;46970;-21
2022/03/14 12:29:48;;;;;;;2.15;1.38;;;23.50;28.00;;;;;;5146575;27;46896;-21
2022/03/14 12:32:53;;;;;;;2.63;1.40;;;23.60;28.00;;;;;;5147766;27;46808;-21
2022/03/14 12:35:27;;;;;;;2.72;1.38;;;23.60;28.00;;;;;;5103848;27;47068;-21
2022/03/14 12:37:55;;;;;;;3.65;1.10;;;23.60;27.90;;;;;;5146877;27;47845;-20
2022/03/14 12:40:47;;;;;;;2.53;1.08;;;23.70;27.90;;;;;;5150474;27;48144;-21
2022/03/14 12:43:32;;;;;;;2.22;1.40;;;23.80;27.90;;;;;;5159853;27;46975;-20
2022/03/14 12:46:00;;;;;;;2.13;1.30;;;23.90;27.90;;;;;;5161757;27;46997;-20
2022/03/14 12:48:29;;;;;;;2.35;1.00;;;23.90;27.80;;;;;;5167812;27;47077;-20
2022/03/14 12:51:04;;;;;;;1.50;1.10;;;24.00;27.80;;;;;;5170634;27;47057;-20
2022/03/14 12:53:43;;;;;;;1.33;0.95;;;24.00;27.70;;;;;;5171538;27;46967;-21